KVSF/VSF METAR and TAF weather

Enter ICAO airport designator
Station Type Date Time Source
KVSF METAR 2022/01/29 13:02 UTC NOAA

KVSF 291302Z AUTO 01007G15KT 1SM -SN OVC021 M13/M17 A2989 RMK AO2 P0000 T11281172


Station Type Date Time Source
KVSF Decoded METAR 2022/01/29 13:02 UTC NOAA

HARTNESS STATE AIRPORT, VT, United States (KVSF) 43-21N 72-31W 175M
Jan 29, 2022 - 08:02 AM EST / 2022.01.29 1302 UTC
Wind: from the N (010 degrees) at 8 MPH (7 KT) gusting to 17 MPH (15 KT):0
Visibility: 1 mile(s):0
Sky conditions: overcast
Weather: light snow
Precipitation last hour: A trace
Temperature: 9.0 F (-12.8 C)
Windchill: -4 F (-20 C):1
Dew Point: 1.0 F (-17.2 C)
Relative Humidity: 69%
Pressure (altimeter): 29.89 in. Hg (1012 hPa)
ob: KVSF 291302Z AUTO 01007G15KT 1SM -SN OVC021 M13/M17 A2989 RMK AO2 P0000 T11281172
cycle: 13

Station Type Date Time Source
KVSF TAF UTC NOAA

Error!

Example: see airport list